createdAt,value
2018-09-14T11:45:28.986Z,22.13
2018-09-14T11:47:59.935Z,22.20
2018-09-14T11:50:30.738Z,20.97
2018-09-14T11:53:01.573Z,21.52
2018-09-14T11:55:32.340Z,22.85
2018-09-14T11:58:03.072Z,23.83
2018-09-14T12:00:33.668Z,23.23
2018-09-14T12:03:04.678Z,23.10
2018-09-14T12:05:35.790Z,25.00
2018-09-14T12:08:06.583Z,24.60
2018-09-14T12:10:37.630Z,25.77
2018-09-14T12:13:08.404Z,22.77
2018-09-14T12:15:39.127Z,23.42
2018-09-14T12:18:10.671Z,22.17
2018-09-14T12:20:41.409Z,21.07
2018-09-14T12:23:12.667Z,19.73
2018-09-14T12:25:43.475Z,20.23
2018-09-14T12:28:14.556Z,20.20
2018-09-14T12:30:45.783Z,20.88
2018-09-14T12:33:16.551Z,18.60
2018-09-14T12:35:47.773Z,20.43
2018-09-14T12:38:18.773Z,20.75
2018-09-14T12:40:49.916Z,19.27
2018-09-14T12:43:20.667Z,18.57
2018-09-14T12:45:51.366Z,19.90
2018-09-14T12:48:21.959Z,19.87
2018-09-14T12:50:57.299Z,20.62
2018-09-14T12:53:28.103Z,19.20
2018-09-14T12:55:58.942Z,18.27
2018-09-14T12:58:30.250Z,18.85
2018-09-14T13:01:01.901Z,18.85
2018-09-14T13:03:32.922Z,19.73
2018-09-14T13:06:05.048Z,17.83
2018-09-14T13:08:36.039Z,18.27
2018-09-14T13:11:07.312Z,17.15
2018-09-14T13:13:37.880Z,17.70
2018-09-14T13:16:08.709Z,19.12
2018-09-14T13:18:40.043Z,19.20
2018-09-14T13:21:11.050Z,18.48
2018-09-14T13:23:41.979Z,18.73
2018-09-14T13:26:12.688Z,19.62
2018-09-14T13:28:43.640Z,17.48
2018-09-14T13:31:16.917Z,18.80
2018-09-14T13:33:47.890Z,20.35
2018-09-14T13:36:18.791Z,20.02
2018-09-14T13:38:49.997Z,19.70
2018-09-14T13:41:20.504Z,19.80
2018-09-14T13:43:51.123Z,17.75
2018-09-14T13:46:22.302Z,18.62
2018-09-14T13:48:52.822Z,18.23
2018-09-14T13:51:23.712Z,19.98
2018-09-14T13:53:55.124Z,19.30
2018-09-14T13:56:25.956Z,16.67
2018-09-14T13:58:56.672Z,17.17
2018-09-14T14:01:27.516Z,15.80
2018-09-14T14:03:58.355Z,15.95
2018-09-14T14:06:29.570Z,16.75
2018-09-14T14:09:00.425Z,16.65
2018-09-14T14:11:31.466Z,17.98
2018-09-14T14:14:02.401Z,17.48
2018-09-14T14:16:33.301Z,17.07
2018-09-14T14:19:04.496Z,17.25
2018-09-14T14:21:35.372Z,16.70
2018-09-14T14:24:07.208Z,18.35
2018-09-14T14:26:37.937Z,16.37
2018-09-14T14:29:09.341Z,17.45
2018-09-14T14:31:40.104Z,18.07
2018-09-14T14:34:11.193Z,15.90
2018-09-14T14:36:42.218Z,15.85
2018-09-14T14:39:13.344Z,16.05
2018-09-14T14:41:44.277Z,15.80
2018-09-14T14:44:15.679Z,16.00
2018-09-14T14:46:46.361Z,14.55
2018-09-14T14:49:17.120Z,16.00
2018-09-14T14:51:49.533Z,14.07
2018-09-14T14:54:20.192Z,14.15
2018-09-14T14:56:50.977Z,14.40
2018-09-14T14:59:22.706Z,12.55
2018-09-14T15:01:53.384Z,14.13
2018-09-14T15:04:24.840Z,13.88
2018-09-14T15:06:55.551Z,13.70
2018-09-14T15:09:26.259Z,13.53
2018-09-14T15:11:56.927Z,14.15
2018-09-14T15:14:27.809Z,15.03
2018-09-14T15:16:58.481Z,14.28
2018-09-14T15:19:29.404Z,14.40
2018-09-14T15:22:00.283Z,15.60
2018-09-14T15:24:31.310Z,16.10
2018-09-14T15:27:02.212Z,14.28
2018-09-14T15:29:32.943Z,14.75
2018-09-14T15:32:03.732Z,14.53
2018-09-14T15:34:34.453Z,13.83
2018-09-14T15:37:05.788Z,14.98
2018-09-14T15:39:36.491Z,14.03
2018-09-14T15:42:07.891Z,14.55
2018-09-14T15:44:38.545Z,14.03
2018-09-14T15:47:09.150Z,15.58
2018-09-14T15:49:39.785Z,14.18
2018-09-14T15:52:10.414Z,14.13
2018-09-14T15:54:41.012Z,14.25
2018-09-14T15:57:11.670Z,13.55
2018-09-14T15:59:42.417Z,14.25
2018-09-14T16:02:14.099Z,13.43
2018-09-14T16:04:45.079Z,14.68
2018-09-14T16:07:15.882Z,14.28
2018-09-14T16:09:46.615Z,14.45
2018-09-14T16:12:17.861Z,14.00
2018-09-14T16:14:48.477Z,13.18
2018-09-14T16:17:18.923Z,14.10
2018-09-14T16:19:50.078Z,13.55
2018-09-14T16:22:20.747Z,13.68
2018-09-14T16:24:51.679Z,13.72
2018-09-14T16:27:23.144Z,13.75
2018-09-14T16:29:53.963Z,13.78
2018-09-14T16:32:25.080Z,13.95
2018-09-14T16:34:55.759Z,14.05
2018-09-14T16:37:26.530Z,13.48
2018-09-14T16:39:57.432Z,12.98
2018-09-14T16:42:28.356Z,13.25
2018-09-14T16:44:59.272Z,10.63
2018-09-14T16:47:30.193Z,12.53
2018-09-14T16:50:01.131Z,14.10
2018-09-14T16:52:31.777Z,13.05
2018-09-14T16:55:02.831Z,12.85
2018-09-14T16:57:33.590Z,13.85
2018-09-14T17:00:05.284Z,14.55
2018-09-14T17:02:36.292Z,13.93
2018-09-14T17:05:08.165Z,15.70
2018-09-14T17:07:38.891Z,14.00
2018-09-14T17:10:09.595Z,13.15
2018-09-14T17:12:40.477Z,15.98
2018-09-14T17:15:11.353Z,13.28
2018-09-14T17:17:42.239Z,13.65
2018-09-14T17:20:12.521Z,14.13
2018-09-14T17:22:42.826Z,13.30
2018-09-14T17:25:13.529Z,13.30
2018-09-14T17:27:44.153Z,13.40
2018-09-14T17:30:14.337Z,13.00
2018-09-14T17:32:44.598Z,13.20
2018-09-14T17:35:16.123Z,12.10
2018-09-14T17:37:46.461Z,11.50
2018-09-14T17:40:16.594Z,13.03
2018-09-14T17:42:46.975Z,13.60
2018-09-14T17:45:17.178Z,15.40
2018-09-14T17:47:47.445Z,13.70
2018-09-14T17:50:17.689Z,14.63
2018-09-14T17:52:48.003Z,16.37
2018-09-14T17:55:18.202Z,14.77
2018-09-14T17:57:48.389Z,14.27
2018-09-14T18:00:18.570Z,14.93
2018-09-14T18:02:48.744Z,13.77
2018-09-14T18:05:18.877Z,13.47
2018-09-14T18:07:49.060Z,12.97
2018-09-14T18:10:19.158Z,13.50
2018-09-14T18:12:49.406Z,13.53
2018-09-14T18:15:19.574Z,12.97
2018-09-14T18:17:49.820Z,12.03
2018-09-14T18:20:20.107Z,12.40
2018-09-14T18:22:50.277Z,12.10
2018-09-14T18:25:20.632Z,11.80
2018-09-14T18:27:50.858Z,11.93
2018-09-14T18:30:21.372Z,13.37
2018-09-14T18:32:52.268Z,11.80
2018-09-14T18:35:22.397Z,13.50
2018-09-14T18:37:52.559Z,12.50
2018-09-14T18:40:22.850Z,12.97
2018-09-14T18:42:53.020Z,14.47
2018-09-14T18:45:23.197Z,13.70
2018-09-14T18:47:53.434Z,13.63
2018-09-14T18:50:23.732Z,14.60
2018-09-14T18:52:53.902Z,13.77
2018-09-14T18:55:24.241Z,14.93
2018-09-14T18:57:54.936Z,12.57
2018-09-14T19:00:26.281Z,12.63
2018-09-14T19:02:56.741Z,12.13
2018-09-14T19:05:27.808Z,12.90
2018-09-14T19:07:58.653Z,11.60
2018-09-14T19:10:29.206Z,10.83
2018-09-14T19:12:59.789Z,10.97
2018-09-14T19:15:30.126Z,13.23
2018-09-14T19:18:01.369Z,11.37
2018-09-14T19:20:31.722Z,12.47
2018-09-14T19:23:02.370Z,12.10
2018-09-14T19:25:32.937Z,11.97
2018-09-14T19:28:03.437Z,14.03
2018-09-14T19:30:33.709Z,13.87
2018-09-14T19:33:04.197Z,13.43
2018-09-14T19:35:34.576Z,12.80
2018-09-14T19:38:04.942Z,11.70
2018-09-14T19:40:35.129Z,12.03
2018-09-14T19:43:05.492Z,11.67
2018-09-14T19:45:35.973Z,12.90
2018-09-14T19:48:06.603Z,13.17
2018-09-14T19:50:37.427Z,11.63
2018-09-14T19:53:08.275Z,10.93
2018-09-14T19:55:39.920Z,12.83
2018-09-14T19:58:10.990Z,13.87
2018-09-14T20:00:41.467Z,11.87
2018-09-14T20:03:13.234Z,12.70
2018-09-14T20:05:43.705Z,11.90
2018-09-14T20:08:14.673Z,12.20
2018-09-14T20:10:45.121Z,12.47
2018-09-14T20:13:15.894Z,13.27
2018-09-14T20:15:46.893Z,11.53
2018-09-14T20:18:17.685Z,11.97
2018-09-14T20:20:48.274Z,14.10
2018-09-14T20:23:19.256Z,14.63
2018-09-14T20:25:49.792Z,14.13
2018-09-14T20:28:20.118Z,13.50
2018-09-14T20:30:50.615Z,15.03
2018-09-14T20:33:23.668Z,14.67
2018-09-14T20:35:54.379Z,14.70
2018-09-14T20:38:25.564Z,15.77
2018-09-14T20:40:59.069Z,14.73
2018-09-14T20:43:30.845Z,12.37
2018-09-14T20:46:02.658Z,12.90
2018-09-14T20:48:35.462Z,13.33
2018-09-14T20:51:06.268Z,12.53
2018-09-14T20:53:36.806Z,13.00
2018-09-14T20:56:07.716Z,13.60
2018-09-14T20:58:38.081Z,12.93
2018-09-14T21:01:09.273Z,13.30
2018-09-14T21:03:40.335Z,12.73
2018-09-14T21:06:13.372Z,12.70
2018-09-14T21:08:44.385Z,13.47
2018-09-14T21:11:14.557Z,12.50
2018-09-14T21:13:45.039Z,12.17
2018-09-14T21:16:15.273Z,12.03
2018-09-14T21:18:45.471Z,11.43
2018-09-14T21:21:15.734Z,11.97
2018-09-14T21:23:45.803Z,11.67
2018-09-14T21:26:16.349Z,11.90
2018-09-14T21:28:46.672Z,10.73
2018-09-14T21:31:17.023Z,10.53
2018-09-14T21:33:49.726Z,11.20
2018-09-14T21:36:19.886Z,11.13
2018-09-14T21:38:50.246Z,10.50
2018-09-14T21:41:20.514Z,10.17
2018-09-14T21:43:51.037Z,10.70
2018-09-14T21:46:22.119Z,9.60
2018-09-14T21:48:52.325Z,11.27
2018-09-14T21:51:22.639Z,11.40
2018-09-14T21:53:53.471Z,10.60
2018-09-14T21:56:23.964Z,10.17
2018-09-14T21:58:54.905Z,11.50
2018-09-14T22:01:29.204Z,10.93
2018-09-14T22:04:00.923Z,11.10
2018-09-14T22:06:31.561Z,10.87
2018-09-14T22:09:02.013Z,11.90
2018-09-14T22:11:32.286Z,11.30
2018-09-14T22:14:02.481Z,11.63
2018-09-14T22:16:32.726Z,11.87
2018-09-14T22:19:02.939Z,13.07
2018-09-14T22:21:33.052Z,12.73
2018-09-14T22:24:03.769Z,12.33
2018-09-14T22:26:33.841Z,11.33
2018-09-14T22:29:04.527Z,11.67
2018-09-14T22:31:34.664Z,12.60
2018-09-14T22:34:04.756Z,12.50
2018-09-14T22:36:34.815Z,12.37
2018-09-14T22:39:07.477Z,11.40
2018-09-14T22:41:37.548Z,12.97
2018-09-14T22:44:08.251Z,12.27
2018-09-14T22:46:38.558Z,12.57
2018-09-14T22:49:08.986Z,13.77
2018-09-14T22:51:39.033Z,14.90
2018-09-14T22:54:09.898Z,14.33
2018-09-14T22:56:40.546Z,14.50
2018-09-14T22:59:10.636Z,14.93
2018-09-14T23:01:40.711Z,15.10
2018-09-14T23:04:10.851Z,14.17
2018-09-14T23:06:41.012Z,13.43
2018-09-14T23:09:12.031Z,13.33
2018-09-14T23:11:42.203Z,12.90
2018-09-14T23:14:12.584Z,13.20
2018-09-14T23:16:42.982Z,14.20
2018-09-14T23:19:13.012Z,13.03
2018-09-14T23:21:43.013Z,13.63
2018-09-14T23:24:13.356Z,13.20
2018-09-14T23:26:43.932Z,14.50
2018-09-14T23:29:14.046Z,14.27
2018-09-14T23:31:44.144Z,16.33
2018-09-14T23:34:14.555Z,17.97
2018-09-14T23:36:44.944Z,17.97
2018-09-14T23:39:15.459Z,16.37
2018-09-14T23:41:45.685Z,17.53
2018-09-14T23:44:15.929Z,17.53
2018-09-14T23:46:46.916Z,18.80
2018-09-14T23:49:17.254Z,21.20
2018-09-14T23:51:47.642Z,20.53
2018-09-14T23:54:18.009Z,19.73
2018-09-14T23:56:48.814Z,19.77
2018-09-14T23:59:20.250Z,20.53
